createdAt,value
2023-03-21T00:00:02.000Z,39.4
2023-03-21T00:01:13.000Z,39.5
2023-03-21T00:02:23.000Z,39.5
2023-03-21T00:03:33.287Z,39.5
2023-03-21T00:04:43.000Z,39.5
2023-03-21T00:05:53.000Z,39.5
2023-03-21T00:07:02.641Z,39.5
2023-03-21T00:08:12.000Z,39.5
2023-03-21T00:09:22.000Z,39.5
2023-03-21T00:10:32.000Z,39.5
2023-03-21T00:11:43.000Z,39.5
2023-03-21T00:12:53.000Z,39.5
2023-03-21T00:14:03.000Z,39.5
2023-03-21T00:15:12.000Z,39.5
2023-03-21T00:16:21.000Z,39.5
2023-03-21T00:17:30.000Z,39.5
2023-03-21T00:18:39.000Z,39.5
2023-03-21T00:19:49.000Z,39.5
2023-03-21T00:21:00.000Z,39.5
2023-03-21T00:22:10.241Z,39.5
2023-03-21T00:23:20.352Z,39.5
2023-03-21T00:24:30.465Z,39.5
2023-03-21T00:25:40.000Z,39.5
2023-03-21T00:26:50.000Z,39.5
2023-03-21T00:28:00.000Z,39.6
2023-03-21T00:29:10.942Z,39.5
2023-03-21T00:30:21.053Z,39.6
2023-03-21T00:31:31.000Z,39.6
2023-03-21T00:32:41.000Z,39.6
2023-03-21T00:33:50.000Z,39.6
2023-03-21T00:35:00.000Z,39.6
2023-03-21T00:36:10.000Z,39.6
2023-03-21T00:37:20.759Z,39.6
2023-03-21T00:38:30.885Z,39.6
2023-03-21T00:39:40.000Z,39.6
2023-03-21T00:40:51.000Z,39.6
2023-03-21T00:42:01.000Z,39.6
2023-03-21T00:43:10.000Z,39.6
2023-03-21T00:44:19.494Z,39.6
2023-03-21T00:45:28.000Z,39.6
2023-03-21T00:46:37.000Z,39.6
2023-03-21T00:47:47.887Z,39.6
2023-03-21T00:48:57.000Z,39.6
2023-03-21T00:50:08.000Z,39.6
2023-03-21T00:51:18.000Z,39.6
2023-03-21T00:52:28.350Z,39.6
2023-03-21T00:53:38.469Z,39.6
2023-03-21T00:54:48.000Z,39.6
2023-03-21T00:55:58.000Z,39.6
2023-03-21T00:57:08.000Z,39.6
2023-03-21T00:58:18.941Z,39.6
2023-03-21T00:59:29.058Z,39.6
2023-03-21T01:00:39.168Z,39.7
2023-03-21T01:01:48.295Z,39.7
2023-03-21T01:02:58.411Z,39.7
2023-03-21T01:04:08.525Z,39.7
2023-03-21T01:05:18.644Z,39.7
2023-03-21T01:06:28.000Z,39.7
2023-03-21T01:07:38.000Z,39.7
2023-03-21T01:08:48.991Z,39.7
2023-03-21T01:09:59.000Z,39.7
2023-03-21T01:11:08.000Z,39.7
2023-03-21T01:12:17.000Z,39.7
2023-03-21T01:13:26.000Z,39.7
2023-03-21T01:14:35.000Z,39.7
2023-03-21T01:15:44.000Z,39.7
2023-03-21T01:16:53.937Z,39.7
2023-03-21T01:18:04.051Z,39.7
2023-03-21T01:19:14.164Z,39.7
2023-03-21T01:20:24.289Z,39.7
2023-03-21T01:22:44.000Z,39.7
2023-03-21T01:23:54.000Z,39.7
2023-03-21T01:25:04.000Z,39.8
2023-03-21T01:26:14.000Z,39.7
2023-03-21T01:27:24.000Z,39.8
2023-03-21T01:28:35.000Z,39.8
2023-03-21T01:29:45.210Z,39.8
2023-03-21T01:30:55.000Z,39.8
2023-03-21T01:32:04.000Z,39.8
2023-03-21T01:33:14.000Z,39.8
2023-03-21T01:34:24.000Z,39.8
2023-03-21T01:35:34.000Z,39.8
2023-03-21T01:36:44.920Z,39.8
2023-03-21T01:37:55.000Z,39.8
2023-03-21T01:39:05.158Z,39.8
2023-03-21T01:40:15.270Z,39.8
2023-03-21T01:41:24.000Z,39.8
2023-03-21T01:42:33.000Z,39.8
2023-03-21T01:43:42.000Z,39.8
2023-03-21T01:44:51.000Z,39.8
2023-03-21T01:46:01.938Z,39.8
2023-03-21T01:47:11.000Z,39.8
2023-03-21T01:48:20.000Z,39.8
2023-03-21T01:49:30.000Z,39.8
2023-03-21T01:50:40.000Z,39.8
2023-03-21T01:51:50.557Z,39.8
2023-03-21T01:53:00.000Z,39.8
2023-03-21T01:54:10.788Z,39.8
2023-03-21T01:55:20.907Z,39.8
2023-03-21T01:56:31.000Z,39.8
2023-03-21T01:57:41.000Z,39.8
2023-03-21T01:58:51.000Z,39.8
2023-03-21T02:00:01.000Z,39.8
2023-03-21T02:01:11.000Z,39.8
2023-03-21T02:02:21.000Z,39.8
2023-03-21T02:03:31.718Z,39.8
2023-03-21T02:04:40.846Z,39.9
2023-03-21T02:05:50.000Z,39.8
2023-03-21T02:07:01.000Z,39.9
2023-03-21T02:08:11.000Z,39.8
2023-03-21T02:09:21.000Z,39.9
2023-03-21T02:10:31.000Z,39.9
2023-03-21T02:11:40.568Z,39.9
2023-03-21T02:12:49.000Z,39.9
2023-03-21T02:13:59.000Z,39.9
2023-03-21T02:15:08.000Z,39.9
2023-03-21T02:16:18.091Z,39.9
2023-03-21T02:17:28.000Z,39.9
2023-03-21T02:18:38.000Z,39.9
2023-03-21T02:19:48.000Z,39.9
2023-03-21T02:20:58.000Z,39.9
2023-03-21T02:22:08.000Z,39.9
2023-03-21T02:23:18.000Z,39.9
2023-03-21T02:24:28.901Z,39.9
2023-03-21T02:25:39.000Z,39.9
2023-03-21T02:26:49.000Z,39.9
2023-03-21T02:27:59.000Z,39.9
2023-03-21T02:29:09.363Z,39.9
2023-03-21T02:30:19.000Z,39.9
2023-03-21T02:31:28.000Z,39.9
2023-03-21T02:32:38.000Z,39.9
2023-03-21T02:33:48.847Z,39.9
2023-03-21T02:34:58.000Z,40
2023-03-21T02:36:09.000Z,40
2023-03-21T02:37:19.202Z,40
2023-03-21T02:38:29.000Z,40
2023-03-21T02:39:38.000Z,40
2023-03-21T02:40:47.000Z,40
2023-03-21T02:41:57.000Z,40
2023-03-21T02:43:07.000Z,40
2023-03-21T02:44:17.000Z,40
2023-03-21T02:45:28.000Z,40
2023-03-21T02:46:38.000Z,40
2023-03-21T02:47:48.000Z,40
2023-03-21T02:48:58.399Z,40
2023-03-21T02:50:08.513Z,40
2023-03-21T02:51:18.000Z,40
2023-03-21T02:52:28.748Z,40
2023-03-21T02:53:38.000Z,40
2023-03-21T02:54:48.972Z,40
2023-03-21T02:55:58.000Z,40
2023-03-21T02:57:08.000Z,40
2023-03-21T02:58:18.000Z,40
2023-03-21T02:59:28.000Z,40
2023-03-21T03:00:38.573Z,40
2023-03-21T03:01:48.000Z,40.1
2023-03-21T03:02:58.000Z,40.1
2023-03-21T03:05:18.000Z,40.1
2023-03-21T03:06:27.199Z,40.1
2023-03-21T03:07:36.000Z,40.1
2023-03-21T03:08:46.000Z,40.1
2023-03-21T03:09:56.000Z,40.1
2023-03-21T03:11:06.000Z,40.1
2023-03-21T03:12:15.000Z,40.1
2023-03-21T03:13:25.935Z,40.1
2023-03-21T03:14:36.000Z,40.1
2023-03-21T03:15:46.000Z,40.1
2023-03-21T03:16:56.000Z,40.1
2023-03-21T03:18:06.399Z,40.1
2023-03-21T03:19:16.000Z,40.1
2023-03-21T03:20:26.000Z,40.1
2023-03-21T03:21:36.000Z,40.1
2023-03-21T03:22:46.000Z,40.1
2023-03-21T03:23:56.984Z,40.1
2023-03-21T03:25:07.000Z,40.2
2023-03-21T03:26:17.000Z,40.1
2023-03-21T03:27:26.000Z,40.2
2023-03-21T03:28:36.000Z,40.2
2023-03-21T03:29:46.000Z,40.2
2023-03-21T03:30:55.000Z,40.2
2023-03-21T03:32:04.000Z,40.2
2023-03-21T03:33:14.000Z,40.2
2023-03-21T03:34:25.082Z,40.2
2023-03-21T03:35:35.198Z,40.2
2023-03-21T03:36:45.000Z,40.2
2023-03-21T03:37:55.000Z,40.2
2023-03-21T03:39:05.000Z,40.2
2023-03-21T03:40:15.000Z,40.2
2023-03-21T03:41:25.000Z,40.2
2023-03-21T03:42:35.000Z,40.2
2023-03-21T03:43:46.000Z,40.2
2023-03-21T03:44:56.125Z,40.2
2023-03-21T03:46:06.237Z,40.4
2023-03-21T03:47:15.368Z,40.4
2023-03-21T03:48:25.000Z,40.4
2023-03-21T03:49:35.000Z,40.4
2023-03-21T03:50:45.000Z,40.4
2023-03-21T03:51:55.000Z,40.4
2023-03-21T03:53:05.948Z,40.4
2023-03-21T03:54:16.000Z,40.4
2023-03-21T03:55:26.000Z,40.4
2023-03-21T03:56:36.301Z,40.4
2023-03-21T03:57:46.000Z,40.4
2023-03-21T03:58:56.000Z,40.4
2023-03-21T04:00:06.000Z,40.4
2023-03-21T04:01:16.000Z,40.4
2023-03-21T04:02:25.000Z,40.4
2023-03-21T04:03:36.000Z,40.4
2023-03-21T04:04:46.000Z,40.4
2023-03-21T04:05:56.000Z,40.4
2023-03-21T04:07:06.000Z,40.4
2023-03-21T04:08:16.483Z,40.4
2023-03-21T04:09:26.000Z,40.4
2023-03-21T04:10:36.000Z,40.4
2023-03-21T04:11:46.000Z,40.4
2023-03-21T04:12:56.936Z,40.4
2023-03-21T04:14:07.000Z,40.4
2023-03-21T04:15:17.000Z,40.4
2023-03-21T04:17:37.397Z,40.4
2023-03-21T04:18:46.000Z,40.4
2023-03-21T04:19:56.000Z,40.4
2023-03-21T04:21:06.000Z,40.4
2023-03-21T04:22:16.000Z,40.4
2023-03-21T04:23:26.000Z,40.4
2023-03-21T04:24:37.000Z,40.4
2023-03-21T04:25:47.000Z,40.4
2023-03-21T04:26:57.345Z,40.4
2023-03-21T04:28:07.458Z,40.4
2023-03-21T04:29:17.580Z,40.4
2023-03-21T04:30:27.000Z,40.4
2023-03-21T04:31:37.000Z,40.4
2023-03-21T04:32:47.000Z,40.4
2023-03-21T04:33:57.000Z,40.4
2023-03-21T04:35:07.000Z,40.5
2023-03-21T04:36:17.000Z,40.4
2023-03-21T04:37:27.399Z,40.4
2023-03-21T04:38:37.000Z,40.4
2023-03-21T04:39:47.000Z,40.5
2023-03-21T04:40:57.000Z,40.5
2023-03-21T04:42:07.000Z,40.5
2023-03-21T04:43:17.000Z,40.5
2023-03-21T04:44:28.000Z,40.5
2023-03-21T04:45:38.000Z,40.5
2023-03-21T04:46:48.329Z,40.5
2023-03-21T04:47:58.000Z,40.5
2023-03-21T04:49:07.574Z,40.5
2023-03-21T04:50:17.000Z,40.5
2023-03-21T04:51:27.000Z,40.5
2023-03-21T04:52:37.000Z,40.5
2023-03-21T04:53:48.000Z,40.5
2023-03-21T04:54:58.000Z,40.5
2023-03-21T04:56:08.000Z,40.5
2023-03-21T04:57:18.000Z,40.5
2023-03-21T04:58:28.510Z,40.6
2023-03-21T04:59:38.618Z,40.6
2023-03-21T05:00:48.000Z,40.6
2023-03-21T05:01:58.850Z,40.6
2023-03-21T05:03:08.969Z,40.6
2023-03-21T05:04:18.000Z,40.6
2023-03-21T05:05:28.000Z,40.6
2023-03-21T05:06:38.000Z,40.6
2023-03-21T05:07:48.000Z,40.6
2023-03-21T05:08:58.000Z,40.6
2023-03-21T05:10:08.000Z,40.6
2023-03-21T05:11:18.000Z,40.6
2023-03-21T05:12:28.000Z,40.6
2023-03-21T05:13:39.000Z,40.6
2023-03-21T05:14:49.000Z,40.6
2023-03-21T05:15:59.000Z,40.6
2023-03-21T05:17:09.000Z,40.6
2023-03-21T05:18:19.493Z,40.6
2023-03-21T05:19:28.000Z,40.6
2023-03-21T05:20:38.000Z,40.6
2023-03-21T05:21:48.000Z,40.7
2023-03-21T05:22:58.000Z,40.7
2023-03-21T05:24:09.000Z,40.7
2023-03-21T05:25:19.000Z,40.7
2023-03-21T05:26:29.000Z,40.7
2023-03-21T05:27:39.000Z,40.7
2023-03-21T05:28:49.000Z,40.7
2023-03-21T05:29:59.000Z,40.7
2023-03-21T05:31:09.000Z,40.7
2023-03-21T05:32:19.000Z,40.7
2023-03-21T05:33:30.000Z,40.7
2023-03-21T05:34:39.000Z,40.7
2023-03-21T05:35:49.000Z,40.7
2023-03-21T05:36:59.379Z,40.7
2023-03-21T05:38:09.000Z,40.7
2023-03-21T05:39:19.000Z,40.7
2023-03-21T05:40:29.000Z,40.7
2023-03-21T05:41:39.000Z,40.7
2023-03-21T05:42:49.000Z,40.7
2023-03-21T05:44:00.000Z,40.7
2023-03-21T05:45:10.206Z,40.9
2023-03-21T05:46:20.000Z,40.9
2023-03-21T05:47:30.000Z,40.9
2023-03-21T05:48:40.536Z,40.9
2023-03-21T05:49:49.000Z,40.9
2023-03-21T05:50:59.785Z,40.9
2023-03-21T05:52:09.906Z,40.9
2023-03-21T05:53:20.018Z,40.9
2023-03-21T05:54:30.139Z,40.9
2023-03-21T05:55:40.260Z,40.9
2023-03-21T05:56:50.000Z,40.9
2023-03-21T05:58:00.000Z,40.9
2023-03-21T05:59:10.000Z,40.9
2023-03-21T06:00:20.000Z,41
2023-03-21T06:01:30.000Z,41
2023-03-21T06:02:40.000Z,41.1
2023-03-21T06:03:51.058Z,41.3
2023-03-21T06:05:00.000Z,41.5
2023-03-21T06:06:10.000Z,41.6
2023-03-21T06:07:20.000Z,41.6
2023-03-21T06:08:30.551Z,41.8
2023-03-21T06:09:40.000Z,41.9
2023-03-21T06:10:50.000Z,42
2023-03-21T06:12:00.000Z,42
2023-03-21T06:13:11.000Z,42.1
2023-03-21T06:14:21.000Z,42.3
2023-03-21T06:15:31.239Z,42.3
2023-03-21T06:16:41.000Z,42.4
2023-03-21T06:17:51.000Z,42.5
2023-03-21T06:19:01.000Z,42.5
2023-03-21T06:20:10.000Z,42.5
2023-03-21T06:21:20.000Z,42.6
2023-03-21T06:22:30.000Z,42.6
2023-03-21T06:23:41.000Z,42.6
2023-03-21T06:24:51.181Z,42.6
2023-03-21T06:26:01.299Z,42.6
2023-03-21T06:27:11.000Z,42.8
2023-03-21T06:28:21.526Z,42.6
2023-03-21T06:29:31.657Z,42.8
2023-03-21T06:30:41.757Z,42.7
2023-03-21T06:31:51.875Z,42.6
2023-03-21T06:33:01.000Z,42.7
2023-03-21T06:34:12.000Z,42.7
2023-03-21T06:35:21.000Z,42.7
2023-03-21T06:36:31.000Z,42.7
2023-03-21T06:37:41.476Z,42.6
2023-03-21T06:38:51.585Z,42.7
2023-03-21T06:40:01.000Z,42.6
2023-03-21T06:41:11.000Z,42.7
2023-03-21T06:42:21.941Z,42.6
2023-03-21T06:43:32.000Z,42.6
2023-03-21T06:44:42.165Z,42.7
2023-03-21T06:45:52.000Z,42.7
2023-03-21T06:47:02.000Z,42.6
2023-03-21T06:48:12.000Z,42.7
2023-03-21T06:49:22.000Z,42.6
2023-03-21T06:50:31.000Z,42.7
2023-03-21T06:51:41.000Z,42.6
2023-03-21T06:52:51.000Z,42.6
2023-03-21T06:54:02.111Z,42.6
2023-03-21T06:55:12.230Z,42.6
2023-03-21T06:56:22.343Z,42.6
2023-03-21T06:57:32.464Z,42.6
2023-03-21T06:58:42.000Z,42.6
2023-03-21T06:59:52.000Z,42.6
2023-03-21T07:01:02.804Z,42.6
2023-03-21T07:02:12.920Z,42.5
2023-03-21T07:03:23.000Z,42.5
2023-03-21T07:04:33.000Z,42.6
2023-03-21T07:05:42.291Z,42.6
2023-03-21T07:06:51.000Z,42.5
2023-03-21T07:08:01.000Z,42.5
2023-03-21T07:09:11.000Z,42.5
2023-03-21T07:10:21.000Z,42.5
2023-03-21T07:11:31.893Z,42.5
2023-03-21T07:12:42.000Z,42.6
2023-03-21T07:13:52.130Z,42.6
2023-03-21T07:15:02.238Z,42.6
2023-03-21T07:16:12.351Z,42.6
2023-03-21T07:17:22.000Z,42.6
2023-03-21T07:18:32.000Z,42.6
2023-03-21T07:19:42.700Z,42.6
2023-03-21T07:20:52.000Z,42.6
2023-03-21T07:22:01.000Z,42.6
2023-03-21T07:23:12.075Z,42.6
2023-03-21T07:24:22.000Z,42.6
2023-03-21T07:25:32.000Z,42.6
2023-03-21T07:26:42.000Z,42.7
2023-03-21T07:27:52.000Z,42.7
2023-03-21T07:29:02.000Z,42.6
2023-03-21T07:30:12.761Z,42.6
2023-03-21T07:31:22.000Z,42.6
2023-03-21T07:32:32.000Z,42.7
2023-03-21T07:33:43.000Z,42.6
2023-03-21T07:34:53.000Z,42.6
2023-03-21T07:36:03.000Z,42.7
2023-03-21T07:37:12.488Z,42.7
2023-03-21T07:38:22.000Z,42.7
2023-03-21T07:39:32.000Z,42.7
2023-03-21T07:40:42.000Z,42.7
2023-03-21T07:41:52.000Z,42.7
2023-03-21T07:43:03.000Z,42.7
2023-03-21T07:44:13.000Z,42.7
2023-03-21T07:45:23.000Z,42.7
2023-03-21T07:46:33.404Z,42.7
2023-03-21T07:47:43.000Z,42.7
2023-03-21T07:48:53.637Z,42.7
2023-03-21T07:50:03.000Z,42.7
2023-03-21T07:51:13.000Z,42.7
2023-03-21T07:52:22.000Z,42.7
2023-03-21T07:53:33.000Z,42.7
2023-03-21T07:54:43.000Z,42.7
2023-03-21T07:55:53.000Z,42.7
2023-03-21T07:57:03.000Z,42.7
2023-03-21T07:58:13.578Z,42.6
2023-03-21T07:59:23.000Z,42.7
2023-03-21T08:00:33.807Z,42.6
2023-03-21T08:01:43.933Z,42.6
2023-03-21T08:02:54.046Z,42.6
2023-03-21T08:04:04.000Z,42.6
2023-03-21T08:05:14.000Z,42.6
2023-03-21T08:06:24.391Z,42.6
2023-03-21T08:07:33.000Z,42.6
2023-03-21T08:08:43.643Z,42.6
2023-03-21T08:09:53.000Z,42.6
2023-03-21T08:11:03.000Z,42.6
2023-03-21T08:12:13.000Z,42.6
2023-03-21T08:13:24.000Z,42.6
2023-03-21T08:14:34.227Z,42.6
2023-03-21T08:15:44.000Z,42.6
2023-03-21T08:16:54.000Z,42.6
2023-03-21T08:18:04.000Z,42.6
2023-03-21T08:19:14.000Z,42.6
2023-03-21T08:20:24.000Z,42.8
2023-03-21T08:21:34.000Z,42.8
2023-03-21T08:22:44.042Z,42.6
2023-03-21T08:23:54.157Z,42.8
2023-03-21T08:25:04.000Z,42.8
2023-03-21T08:26:14.000Z,42.8
2023-03-21T08:27:24.000Z,42.8
2023-03-21T08:28:34.000Z,42.8
2023-03-21T08:29:44.000Z,42.8
2023-03-21T08:30:54.000Z,42.6
2023-03-21T08:32:04.981Z,42.8
2023-03-21T08:33:15.000Z,42.8
2023-03-21T08:34:25.203Z,42.8
2023-03-21T08:35:35.000Z,42.8
2023-03-21T08:36:45.000Z,42.8
2023-03-21T08:37:54.000Z,42.8
2023-03-21T08:39:04.000Z,42.8
2023-03-21T08:40:14.000Z,42.8
2023-03-21T08:41:24.000Z,42.8
2023-03-21T08:42:35.000Z,42.8
2023-03-21T08:43:45.000Z,42.6
2023-03-21T08:44:55.000Z,42.6
2023-03-21T08:46:05.000Z,42.6
2023-03-21T08:47:15.000Z,42.8
2023-03-21T08:48:25.000Z,42.8
2023-03-21T08:49:35.000Z,42.6
2023-03-21T08:50:45.000Z,42.6
2023-03-21T08:51:55.957Z,42.6
2023-03-21T08:53:05.000Z,42.6
2023-03-21T08:54:15.000Z,42.7
2023-03-21T08:55:25.320Z,42.6
2023-03-21T08:56:35.447Z,42.7
2023-03-21T08:57:45.000Z,42.6
2023-03-21T08:58:55.000Z,42.6
2023-03-21T09:00:05.000Z,42.6
2023-03-21T09:01:15.000Z,42.6
2023-03-21T09:02:26.000Z,42.6
2023-03-21T09:03:36.000Z,42.6
2023-03-21T09:04:46.000Z,42.6
2023-03-21T09:05:56.366Z,42.6
2023-03-21T09:07:06.000Z,42.6
2023-03-21T09:08:15.000Z,42.6
2023-03-21T09:09:25.000Z,42.6
2023-03-21T09:10:35.000Z,42.6
2023-03-21T09:11:45.000Z,42.6
2023-03-21T09:12:56.000Z,42.6
2023-03-21T09:14:06.192Z,42.6
2023-03-21T09:15:16.000Z,42.6
2023-03-21T09:16:26.000Z,42.6
2023-03-21T09:17:36.000Z,42.6
2023-03-21T09:18:46.000Z,42.6
2023-03-21T09:19:56.774Z,42.7
2023-03-21T09:21:06.000Z,42.7
2023-03-21T09:22:17.000Z,42.7
2023-03-21T09:23:26.136Z,42.7
2023-03-21T09:24:36.250Z,42.7
2023-03-21T09:25:46.371Z,42.7
2023-03-21T09:26:56.000Z,42.7
2023-03-21T09:28:06.000Z,42.7
2023-03-21T09:29:16.000Z,42.8
2023-03-21T09:30:26.000Z,42.7
2023-03-21T09:31:36.000Z,42.8
2023-03-21T09:32:47.000Z,42.8
2023-03-21T09:33:57.000Z,42.8
2023-03-21T09:35:07.000Z,42.8
2023-03-21T09:36:17.000Z,42.9
2023-03-21T09:37:27.522Z,42.9
2023-03-21T09:38:36.000Z,42.9
2023-03-21T09:39:46.000Z,42.9
2023-03-21T09:40:56.000Z,42.9
2023-03-21T09:42:07.000Z,42.9
2023-03-21T09:43:17.000Z,42.9
2023-03-21T09:44:27.000Z,42.9
2023-03-21T09:45:37.350Z,42.9
2023-03-21T09:46:47.000Z,42.8
2023-03-21T09:47:57.582Z,42.8
2023-03-21T09:49:07.000Z,42.8
2023-03-21T09:50:17.000Z,42.8
2023-03-21T09:51:27.000Z,42.8
2023-03-21T09:52:38.043Z,42.8
2023-03-21T09:53:47.179Z,42.8
2023-03-21T09:54:57.000Z,42.8
2023-03-21T09:56:07.407Z,43
2023-03-21T09:57:17.000Z,43.2
2023-03-21T09:58:27.000Z,43.4
2023-03-21T09:59:37.000Z,43.8
2023-03-21T10:00:47.000Z,43.8
2023-03-21T10:01:57.000Z,43.8
2023-03-21T10:03:08.000Z,44.1
2023-03-21T10:04:18.226Z,44.2
2023-03-21T10:05:28.000Z,44.1
2023-03-21T10:06:38.000Z,44.4
2023-03-21T10:07:48.570Z,44.4
2023-03-21T10:08:57.000Z,44.5
2023-03-21T10:10:07.000Z,44.5
2023-03-21T10:11:17.000Z,44.5
2023-03-21T10:12:28.000Z,44.7
2023-03-21T10:13:38.000Z,44.7
2023-03-21T10:14:48.000Z,44.8
2023-03-21T10:15:58.395Z,44.9
2023-03-21T10:17:08.509Z,45
2023-03-21T10:18:18.635Z,45
2023-03-21T10:19:28.000Z,45
2023-03-21T10:20:38.000Z,45
2023-03-21T10:21:48.000Z,45
2023-03-21T10:22:59.000Z,45
2023-03-21T10:24:08.000Z,44.9
2023-03-21T10:25:18.000Z,44.9
2023-03-21T10:26:28.000Z,45
2023-03-21T10:27:38.568Z,44.9
2023-03-21T10:28:48.000Z,45
2023-03-21T10:29:58.804Z,45
2023-03-21T10:31:08.000Z,45.1
2023-03-21T10:32:19.000Z,45
2023-03-21T10:33:29.148Z,45
2023-03-21T10:34:39.000Z,44.9
2023-03-21T10:35:49.000Z,45
2023-03-21T10:36:59.000Z,45
2023-03-21T10:38:09.000Z,45
2023-03-21T10:39:18.000Z,44.9
2023-03-21T10:40:28.000Z,44.8
2023-03-21T10:41:38.000Z,44.8
2023-03-21T10:42:49.000Z,44.8
2023-03-21T10:43:59.000Z,44.7
2023-03-21T10:45:09.325Z,44.7
2023-03-21T10:46:19.000Z,44.6
2023-03-21T10:47:29.556Z,44.5
2023-03-21T10:48:39.681Z,44.4
2023-03-21T10:49:49.000Z,44.3
2023-03-21T10:50:59.908Z,44.2
2023-03-21T10:52:10.000Z,44.2
2023-03-21T10:53:20.136Z,44.2
2023-03-21T10:54:29.000Z,44.1
2023-03-21T10:55:39.000Z,44.1
2023-03-21T10:56:49.504Z,44.2
2023-03-21T10:57:59.000Z,44
2023-03-21T10:59:09.000Z,44
2023-03-21T11:00:19.000Z,43.9
2023-03-21T11:01:28.993Z,43.9
2023-03-21T11:02:39.104Z,43.9
2023-03-21T11:03:49.000Z,43.9
2023-03-21T11:04:59.000Z,43.8
2023-03-21T11:06:09.000Z,43.8
2023-03-21T11:07:19.564Z,43.9
2023-03-21T11:08:29.684Z,43.9
2023-03-21T11:09:39.000Z,43.8
2023-03-21T11:10:49.000Z,43.7
2023-03-21T11:12:00.038Z,43.7
2023-03-21T11:13:10.000Z,43.8
2023-03-21T11:14:20.000Z,43.7
2023-03-21T11:15:30.392Z,43.6
2023-03-21T11:16:39.509Z,43.6
2023-03-21T11:17:49.000Z,43.5
2023-03-21T11:18:59.000Z,43.4
2023-03-21T11:20:09.857Z,43.4
2023-03-21T11:21:19.000Z,43.3
2023-03-21T11:22:30.000Z,43.3
2023-03-21T11:23:40.000Z,43.2
2023-03-21T11:24:50.000Z,43.2
2023-03-21T11:26:00.000Z,43.2
2023-03-21T11:27:10.554Z,43.1
2023-03-21T11:28:20.000Z,43
2023-03-21T11:29:30.000Z,43
2023-03-21T11:30:40.000Z,43
2023-03-21T11:31:50.000Z,42.9
2023-03-21T11:33:00.162Z,42.9
2023-03-21T11:34:10.000Z,42.9
2023-03-21T11:35:20.000Z,42.8
2023-03-21T11:36:30.000Z,42.8
2023-03-21T11:37:40.000Z,42.8
2023-03-21T11:38:50.000Z,42.8
2023-03-21T11:40:00.000Z,42.6
2023-03-21T11:41:10.000Z,42.6
2023-03-21T11:42:21.083Z,42.6
2023-03-21T11:43:31.000Z,42.5
2023-03-21T11:44:41.000Z,42.5
2023-03-21T11:45:51.000Z,42.5
2023-03-21T11:47:00.000Z,42.5
2023-03-21T11:48:10.000Z,42.4
2023-03-21T11:49:20.791Z,42.4
2023-03-21T11:50:30.904Z,42.4
2023-03-21T11:51:41.000Z,42.4
2023-03-21T11:52:51.000Z,42.4
2023-03-21T11:54:01.000Z,42.3
2023-03-21T11:55:11.000Z,42.3
2023-03-21T11:56:21.000Z,42.3
2023-03-21T11:57:31.000Z,42.3
2023-03-21T11:58:41.000Z,42.3
2023-03-21T11:59:51.836Z,42.3
2023-03-21T12:01:01.000Z,42.3
2023-03-21T12:02:11.000Z,42.3
2023-03-21T12:03:21.000Z,42.4
2023-03-21T12:04:31.319Z,42.4
2023-03-21T12:05:41.000Z,42.5
2023-03-21T12:06:51.000Z,42.6
2023-03-21T12:08:01.000Z,42.5
2023-03-21T12:09:11.000Z,42.5
2023-03-21T12:10:21.894Z,42.6
2023-03-21T12:11:32.000Z,42.6
2023-03-21T12:12:42.000Z,42.6
2023-03-21T12:13:52.237Z,42.6
2023-03-21T12:15:02.354Z,43.1
2023-03-21T12:16:12.000Z,42.6
2023-03-21T12:17:21.000Z,42.6
2023-03-21T12:18:31.723Z,42.5
2023-03-21T12:19:41.000Z,42.5
2023-03-21T12:20:51.000Z,42.5
2023-03-21T12:22:02.067Z,42.5
2023-03-21T12:23:12.000Z,42.5
2023-03-21T12:24:22.301Z,42.5
2023-03-21T12:25:32.000Z,42.5
2023-03-21T12:26:42.000Z,42.4
2023-03-21T12:27:52.000Z,42.4
2023-03-21T12:29:02.000Z,42.3
2023-03-21T12:30:12.000Z,42.4
2023-03-21T12:31:23.000Z,42.3
2023-03-21T12:32:32.000Z,42.3
2023-03-21T12:33:42.241Z,42.3
2023-03-21T12:34:52.000Z,42.2
2023-03-21T12:36:02.000Z,42.2
2023-03-21T12:37:12.000Z,42.2
2023-03-21T12:38:22.707Z,42.2
2023-03-21T12:39:32.823Z,42.2
2023-03-21T12:40:42.000Z,42.1
2023-03-21T12:41:53.056Z,42.1
2023-03-21T12:43:03.000Z,42.1
2023-03-21T12:44:13.000Z,42.2
2023-03-21T12:45:23.000Z,42.1
2023-03-21T12:46:33.515Z,42.1
2023-03-21T12:47:42.000Z,42.1
2023-03-21T12:48:52.000Z,42.3
2023-03-21T12:50:02.000Z,42.2
2023-03-21T12:51:13.004Z,42.1
2023-03-21T12:52:23.000Z,42.1
2023-03-21T12:53:33.236Z,42
2023-03-21T12:54:43.000Z,41.9
2023-03-21T12:55:53.000Z,41.9
2023-03-21T12:57:03.583Z,41.9
2023-03-21T12:58:13.000Z,41.7
2023-03-21T12:59:23.000Z,41.7
2023-03-21T13:00:33.000Z,41.7
2023-03-21T13:01:44.000Z,41.6
2023-03-21T13:02:53.174Z,41.5
2023-03-21T13:04:03.302Z,41.4
2023-03-21T13:05:13.404Z,41.4
2023-03-21T13:06:23.522Z,41.3
2023-03-21T13:07:33.639Z,41.2
2023-03-21T13:08:43.000Z,41.2
2023-03-21T13:09:53.000Z,41.1
2023-03-21T13:11:03.000Z,41.1
2023-03-21T13:12:14.000Z,41.1
2023-03-21T13:13:24.000Z,41
2023-03-21T13:14:34.336Z,41
2023-03-21T13:15:44.448Z,40.9
2023-03-21T13:16:54.000Z,40.9
2023-03-21T13:18:03.700Z,40.9
2023-03-21T13:19:13.000Z,40.9
2023-03-21T13:20:23.000Z,40.9
2023-03-21T13:21:34.000Z,40.9
2023-03-21T13:22:44.000Z,40.8
2023-03-21T13:23:54.288Z,40.9
2023-03-21T13:25:04.000Z,40.9
2023-03-21T13:26:14.509Z,40.8
2023-03-21T13:27:24.000Z,40.9
2023-03-21T13:28:34.000Z,40.8
2023-03-21T13:29:44.861Z,40.8
2023-03-21T13:30:54.974Z,40.8
2023-03-21T13:32:05.000Z,40.8
2023-03-21T13:33:14.000Z,40.8
2023-03-21T13:34:24.000Z,40.8
2023-03-21T13:35:34.452Z,40.9
2023-03-21T13:36:44.574Z,40.8
2023-03-21T13:37:54.687Z,40.9
2023-03-21T13:39:04.801Z,40.9
2023-03-21T13:40:14.000Z,40.9
2023-03-21T13:41:25.000Z,40.9
2023-03-21T13:42:35.150Z,40.8
2023-03-21T13:43:45.269Z,40.8
2023-03-21T13:44:55.000Z,40.8
2023-03-21T13:46:05.497Z,40.8
2023-03-21T13:47:15.000Z,40.8
2023-03-21T13:48:24.000Z,40.8
2023-03-21T13:49:34.864Z,40.8
2023-03-21T13:50:44.000Z,40.8
2023-03-21T13:51:55.000Z,40.8
2023-03-21T13:53:05.212Z,40.8
2023-03-21T13:54:15.339Z,40.8
2023-03-21T13:55:25.453Z,40.8
2023-03-21T13:56:35.000Z,40.8
2023-03-21T13:57:45.672Z,40.8
2023-03-21T13:58:55.000Z,40.8
2023-03-21T14:00:05.902Z,40.8
2023-03-21T14:01:16.000Z,40.8
2023-03-21T14:02:26.000Z,40.8
2023-03-21T14:03:35.269Z,40.8
2023-03-21T14:04:45.000Z,40.8
2023-03-21T14:05:55.000Z,40.7
2023-03-21T14:07:05.615Z,40.8
2023-03-21T14:08:15.000Z,40.7
2023-03-21T14:09:25.847Z,40.7
2023-03-21T14:10:35.968Z,40.7
2023-03-21T14:11:46.079Z,40.7
2023-03-21T14:12:56.000Z,40.6
2023-03-21T14:14:06.310Z,40.5
2023-03-21T14:15:16.000Z,40.5
2023-03-21T14:16:26.554Z,40.4
2023-03-21T14:17:36.000Z,40.4
2023-03-21T14:18:45.000Z,40.4
2023-03-21T14:19:55.908Z,40.4
2023-03-21T14:21:06.000Z,40.3
2023-03-21T14:22:16.000Z,40.3
2023-03-21T14:23:26.000Z,40.3
2023-03-21T14:24:36.369Z,40.3
2023-03-21T14:25:46.490Z,40.3
2023-03-21T14:26:56.000Z,40.3
2023-03-21T14:28:06.719Z,40.3
2023-03-21T14:29:16.839Z,40.3
2023-03-21T14:30:26.000Z,40.3
2023-03-21T14:31:37.000Z,40.3
2023-03-21T14:32:47.000Z,40.3
2023-03-21T14:33:56.328Z,40.3
2023-03-21T14:35:06.000Z,40.3
2023-03-21T14:36:16.553Z,40.3
2023-03-21T14:37:26.000Z,40.3
2023-03-21T14:38:36.000Z,40.3
2023-03-21T14:39:46.000Z,40.3
2023-03-21T14:40:57.011Z,40.3
2023-03-21T14:42:07.000Z,40.3
2023-03-21T14:43:17.244Z,40.2
2023-03-21T14:44:27.357Z,40.3
2023-03-21T14:45:37.476Z,40.2
2023-03-21T14:46:47.588Z,40.2
2023-03-21T14:47:57.000Z,40.2
2023-03-21T14:49:06.000Z,40.2
2023-03-21T14:50:16.000Z,40.2
2023-03-21T14:51:27.073Z,40.2
2023-03-21T14:52:37.000Z,40.2
2023-03-21T14:53:47.317Z,40.2
2023-03-21T14:54:57.000Z,40.1
2023-03-21T14:56:06.555Z,40
2023-03-21T14:57:16.000Z,39.9
2023-03-21T14:58:26.000Z,39.9
2023-03-21T14:59:36.903Z,39.9
2023-03-21T15:00:47.000Z,39.9
2023-03-21T15:01:57.000Z,39.9
2023-03-21T15:03:07.000Z,39.9
2023-03-21T15:04:17.000Z,39.9
2023-03-21T15:05:27.482Z,39.9
2023-03-21T15:06:37.000Z,39.9
2023-03-21T15:07:47.000Z,39.9
2023-03-21T15:08:57.827Z,39.9
2023-03-21T15:10:07.000Z,39.9
2023-03-21T15:11:17.075Z,39.9
2023-03-21T15:12:27.000Z,39.9
2023-03-21T15:13:37.000Z,39.9
2023-03-21T15:14:47.424Z,39.9
2023-03-21T15:15:57.561Z,39.9
2023-03-21T15:17:07.000Z,39.9
2023-03-21T15:18:17.773Z,39.9
2023-03-21T15:19:27.000Z,39.9
2023-03-21T15:20:37.000Z,39.9
2023-03-21T15:21:48.000Z,39.9
2023-03-21T15:24:08.000Z,40
2023-03-21T15:25:18.469Z,40
2023-03-21T15:26:27.000Z,40
2023-03-21T15:27:37.000Z,40
2023-03-21T15:28:47.838Z,40
2023-03-21T15:29:57.957Z,40
2023-03-21T15:31:08.000Z,40.1
2023-03-21T15:32:18.000Z,40.1
2023-03-21T15:33:28.000Z,40.1
2023-03-21T15:34:38.418Z,40.1
2023-03-21T15:35:48.000Z,40.1
2023-03-21T15:36:58.000Z,40.2
2023-03-21T15:38:08.000Z,40.2
2023-03-21T15:39:18.874Z,40.2
2023-03-21T15:40:28.000Z,40.3